Weather reports worldwide

Advertisment
Figueras Castropol, Spain (8009): temperature & dewpoint: 18.06.2018 16:00:00 - 24.06.2018 16:00:00 (CEST)Figueras Castropol, Spain (8009): wind speed & gusts: 18.06.2018 16:00:00 - 24.06.2018 16:00:00 (CEST)Figueras Castropol, Spain (8009): wind direction: 18.06.2018 16:00:00 - 24.06.2018 16:00:00 (CEST)Figueras Castropol, Spain (8009): precipitation: 18.06.2018 16:00:00 - 24.06.2018 16:00:00 (CEST)
Date & Time tt [°C] td [°C] ff [km/h] ff [kn] fx [km/h] fx [kn] dd rr [mm]
24.06.2018 16:00:00 20,8 15,8 7 4 16 9 NW 0,0
24.06.2018 15:00:00 21,3 15,2 9 5 16 8 NNW 0,0
24.06.2018 14:00:00 21,7 15,3 5 3 14 8 NNW -
24.06.2018 13:00:00 21,4 15,3 6 4 13 7 N 0,0
24.06.2018 12:00:00 20,7 15,7 6 4 12 6 N 0,0
24.06.2018 11:00:00 19,1 15,8 3 2 7 4 NNW 0,0
24.06.2018 10:00:00 17,7 15,9 3 1 6 4 W 0,0
24.06.2018 09:00:00 16,4 15,1 0 0 5 3 N 0,0
24.06.2018 08:00:00 15,4 14,1 4 2 8 5 ENE -
24.06.2018 07:00:00 16,1 14,8 0 0 7 4 ENE 0,0
24.06.2018 06:00:00 16,2 15,1 3 2 7 4 SSW 0,0
24.06.2018 05:00:00 16,0 14,7 1 1 6 3 S 0,0
24.06.2018 04:00:00 15,7 14,4 1 0 9 5 NW 0,0
24.06.2018 03:00:00 15,2 13,9 1 1 6 3 WSW 0,0
24.06.2018 02:00:00 15,1 13,9 0 0 5 3 ESE -
24.06.2018 01:00:00 14,9 13,3 0 0 9 5 N 0,0
24.06.2018 00:00:00 15,4 13,5 0 0 11 6 N 0,0
23.06.2018 23:00:00 16,2 13,7 3 2 13 7 WSW 0,0
23.06.2018 22:00:00 17,3 13,9 9 5 18 10 E 0,0
23.06.2018 21:00:00 18,5 13,9 12 7 35 19 E 0,0
23.06.2018 20:00:00 19,2 14,2 20 11 41 22 E -
23.06.2018 19:00:00 20,0 14,8 21 12 40 22 E 0,0
23.06.2018 18:00:00 21,3 15,2 15 8 32 17 ENE 0,0
23.06.2018 17:00:00 21,5 15,1 19 10 33 18 E 0,0
23.06.2018 16:00:00 22,0 15,6 16 8 34 18 ENE 0,0
23.06.2018 15:00:00 21,7 15,8 16 9 40 22 ENE 0,0
23.06.2018 14:00:00 21,6 15,2 16 9 34 18 ENE -
23.06.2018 13:00:00 21,8 14,4 14 8 34 18 ENE 0,0
23.06.2018 12:00:00 21,7 14,3 13 7 24 13 ENE 0,0
23.06.2018 11:00:00 20,0 15,0 4 2 9 5 NNW 0,0
23.06.2018 10:00:00 18,4 15,3 2 1 5 3 N 0,0
23.06.2018 09:00:00 17,2 15,0 0 0 4 2 WSW 0,0
23.06.2018 08:00:00 16,0 14,5 0 0 4 2 SSW -
23.06.2018 07:00:00 15,4 13,9 1 1 4 2 SW 0,0
23.06.2018 06:00:00 15,3 13,9 0 0 4 2 N 0,0
23.06.2018 05:00:00 15,3 13,7 3 2 12 7 NE 0,0
23.06.2018 04:00:00 15,9 14,0 5 3 18 10 NE 0,0
23.06.2018 03:00:00 15,8 13,9 9 5 22 12 ENE 0,0
23.06.2018 02:00:00 16,1 13,9 7 4 21 12 E -
23.06.2018 01:00:00 16,5 14,1 11 6 32 17 ENE 0,0
23.06.2018 00:00:00 16,4 14,0 13 7 30 16 E 0,0
22.06.2018 23:00:00 16,8 14,4 11 6 31 17 ENE 0,0
22.06.2018 22:00:00 16,9 14,5 16 8 37 20 E 0,0
22.06.2018 21:00:00 17,1 14,5 19 10 37 20 E 0,0
22.06.2018 20:00:00 17,5 15,0 19 11 44 24 E -
22.06.2018 19:00:00 18,0 15,1 20 11 44 24 ENE 0,0
22.06.2018 18:00:00 18,7 15,3 20 11 39 21 ENE 0,0
22.06.2018 17:00:00 19,7 16,1 19 10 40 21 ENE 0,0
22.06.2018 16:00:00 19,5 16,0 20 11 40 21 ENE 0,0
22.06.2018 15:00:00 20,1 16,1 16 9 37 20 ENE 0,0
22.06.2018 14:00:00 21,0 16,4 17 9 39 21 ENE -
22.06.2018 13:00:00 21,4 16,4 14 8 32 17 ENE 0,0
22.06.2018 12:00:00 21,2 16,1 13 7 33 18 ENE 0,0
22.06.2018 11:00:00 19,0 15,9 16 8 32 17 ENE 0,0
22.06.2018 10:00:00 17,8 16,0 13 7 34 18 ENE 0,0
22.06.2018 09:00:00 17,3 15,8 13 7 29 16 ENE 0,0
22.06.2018 08:00:00 16,8 15,8 12 7 34 18 ENE -
22.06.2018 07:00:00 16,6 15,8 13 7 29 16 ENE 0,0
22.06.2018 06:00:00 16,6 15,8 11 6 26 14 ENE 0,0
22.06.2018 05:00:00 16,6 15,8 11 6 26 14 ENE 0,0
22.06.2018 04:00:00 16,6 16,0 9 5 22 12 ENE 0,0
22.06.2018 03:00:00 16,6 16,0 9 5 23 12 ENE 0,0
22.06.2018 02:00:00 16,5 15,9 8 5 29 16 ENE -
22.06.2018 01:00:00 16,5 15,9 10 6 31 17 ENE 0,0
22.06.2018 00:00:00 16,5 15,9 12 6 31 17 ENE 0,1
21.06.2018 23:00:00 16,7 16,0 10 5 31 17 ENE 0,2
21.06.2018 22:00:00 16,8 16,1 10 5 27 15 ENE 0,2
21.06.2018 21:00:00 17,1 16,3 10 5 25 13 ENE 0,2
21.06.2018 20:00:00 17,2 16,4 10 5 23 12 NE -
21.06.2018 19:00:00 17,8 16,6 8 4 21 12 NE 0,0
21.06.2018 18:00:00 17,9 16,7 8 4 28 15 ENE 0,0
21.06.2018 17:00:00 18,1 17,1 10 6 30 16 ENE 0,0
21.06.2018 16:00:00 17,9 16,9 8 4 29 15 ENE 0,1
21.06.2018 15:00:00 17,8 16,5 10 5 23 13 ENE 0,0
21.06.2018 14:00:00 18,3 17,0 8 4 22 12 NE -
21.06.2018 13:00:00 17,9 16,7 8 5 20 11 NE 0,0
21.06.2018 12:00:00 17,7 17,1 8 4 21 12 NE 0,0
21.06.2018 11:00:00 17,2 16,6 6 3 18 10 NE 0,0
21.06.2018 10:00:00 17,0 16,6 6 3 20 11 ENE 0,1
21.06.2018 09:00:00 16,7 16,2 9 5 21 12 NE 0,2
21.06.2018 08:00:00 16,9 16,4 9 5 22 12 NE -
21.06.2018 07:00:00 17,2 16,7 6 4 17 9 NE 0,1
21.06.2018 06:00:00 17,4 16,7 7 4 14 7 NNE 0,2
21.06.2018 05:00:00 17,2 16,6 4 2 10 5 NE 0,0
21.06.2018 04:00:00 17,4 16,7 3 2 8 5 N 0,0
21.06.2018 03:00:00 17,5 16,9 3 2 7 4 N 0,1
21.06.2018 02:00:00 17,5 16,7 1 1 6 4 N -
21.06.2018 01:00:00 17,6 16,6 2 1 6 3 NNW 0,0
21.06.2018 00:00:00 17,7 16,4 3 2 9 5 N 0,0
20.06.2018 23:00:00 18,2 16,6 2 1 8 4 NNW 0,0
20.06.2018 22:00:00 18,3 16,6 4 2 9 5 E 0,0
20.06.2018 21:00:00 18,5 16,6 4 2 14 8 ENE 0,0
20.06.2018 20:00:00 18,8 16,4 7 4 13 7 NE -
20.06.2018 19:00:00 19,4 16,6 8 4 16 8 NNE 0,0
20.06.2018 18:00:00 19,7 17,3 6 4 13 7 NE 0,0
20.06.2018 17:00:00 19,4 16,8 7 4 15 8 NNE 0,0
20.06.2018 16:00:00 20,9 17,3 4 2 11 6 N 0,0
20.06.2018 15:00:00 20,4 17,2 4 2 11 6 N 0,0
20.06.2018 14:00:00 20,3 16,9 5 3 10 5 N -
20.06.2018 13:00:00 19,6 17,2 3 2 8 5 N 0,0
20.06.2018 12:00:00 18,8 16,2 4 2 10 5 NNW 0,0
20.06.2018 11:00:00 18,9 16,7 1 1 8 4 NNW 0,0
20.06.2018 10:00:00 17,8 16,8 2 1 4 2 WSW 0,0
20.06.2018 09:00:00 17,1 16,3 0 0 1 0 N 0,0
20.06.2018 08:00:00 16,8 16,0 0 0 5 3 N -
20.06.2018 07:00:00 16,8 15,8 0 0 6 4 NE 0,0
20.06.2018 06:00:00 16,9 15,8 1 0 - - W -
20.06.2018 05:00:00 16,9 15,6 0 0 3 2 NNW 0,0
20.06.2018 04:00:00 17,0 15,5 0 0 6 3 NNW 0,0
20.06.2018 03:00:00 17,1 15,6 1 1 5 3 WNW 0,0
20.06.2018 02:00:00 17,3 15,6 0 0 8 4 WSW -
20.06.2018 01:00:00 17,4 15,5 3 1 10 5 SSE 0,0
20.06.2018 00:00:00 17,5 15,7 6 3 15 8 E 0,0
19.06.2018 23:00:00 17,4 15,3 9 5 16 9 E 0,0
19.06.2018 22:00:00 17,7 15,2 8 4 23 12 ENE 0,0
19.06.2018 21:00:00 18,2 15,1 10 6 31 17 ENE 0,0
19.06.2018 20:00:00 19,2 14,9 13 7 31 17 ENE -
19.06.2018 19:00:00 20,1 15,1 14 8 32 17 ENE 0,0
19.06.2018 18:00:00 20,2 14,8 16 8 38 21 ENE 0,0
19.06.2018 17:00:00 20,9 15,3 16 9 40 22 ENE 0,0
19.06.2018 16:00:00 21,1 15,0 18 10 39 21 ENE 0,0
19.06.2018 15:00:00 21,2 15,7 16 9 41 22 ENE 0,0
19.06.2018 14:00:00 20,1 15,3 17 9 37 20 ENE -
19.06.2018 13:00:00 19,2 15,7 18 10 36 20 E 0,0
19.06.2018 12:00:00 18,2 15,3 14 8 36 19 ENE 0,0
19.06.2018 11:00:00 17,9 15,3 14 8 30 16 ENE 0,0
19.06.2018 10:00:00 17,3 15,1 15 8 34 18 ENE 0,0
19.06.2018 09:00:00 16,9 14,9 13 7 29 16 ENE 0,0
19.06.2018 08:00:00 16,5 14,9 12 6 28 15 ENE -
19.06.2018 07:00:00 16,4 14,9 10 6 29 15 ENE 0,0
19.06.2018 06:00:00 16,4 14,7 11 6 28 15 ENE 0,0
19.06.2018 05:00:00 16,5 14,9 13 7 27 15 ENE 0,0
19.06.2018 04:00:00 16,7 15,1 11 6 25 14 ENE 0,0
19.06.2018 03:00:00 16,9 15,3 10 5 26 14 ENE 0,0
19.06.2018 02:00:00 17,1 15,4 12 7 27 15 ENE -
19.06.2018 01:00:00 17,2 15,2 9 5 23 12 ENE 0,0
19.06.2018 00:00:00 17,5 15,2 9 5 21 12 ENE 0,0
18.06.2018 23:00:00 17,5 15,2 10 5 24 13 ENE 0,0
18.06.2018 22:00:00 17,6 15,3 13 7 27 15 ENE 0,0
18.06.2018 21:00:00 17,9 15,0 12 7 25 14 ENE 0,0
18.06.2018 20:00:00 18,5 15,0 9 5 25 13 ENE -
18.06.2018 19:00:00 19,0 15,1 11 6 29 16 ENE 0,0
18.06.2018 18:00:00 19,3 15,0 10 6 24 13 ENE 0,0
18.06.2018 17:00:00 18,7 15,3 12 7 26 14 NE 0,0
18.06.2018 16:00:00 20,4 15,8 10 5 24 13 NNE 0,0

tt = temperature
td = dewpoint
ff = wind speed
fx = gusts
dd = wind direction
rr = precipitation

Next stations